createdAt,value
2023-02-02T00:00:52.408Z,90.72
2023-02-02T00:03:19.422Z,90.41
2023-02-02T00:05:49.330Z,90.40
2023-02-02T00:08:17.372Z,90.48
2023-02-02T00:10:44.813Z,90.56
2023-02-02T00:13:12.249Z,90.58
2023-02-02T00:15:39.643Z,90.39
2023-02-02T00:18:06.585Z,90.28
2023-02-02T00:20:36.559Z,90.53
2023-02-02T00:23:04.282Z,90.47
2023-02-02T00:25:31.287Z,90.24
2023-02-02T00:27:57.780Z,90.15
2023-02-02T00:30:24.369Z,90.83
2023-02-02T00:32:53.032Z,90.95
2023-02-02T00:35:20.403Z,90.97
2023-02-02T00:37:46.937Z,91.22
2023-02-02T00:40:13.620Z,91.34
2023-02-02T00:42:40.121Z,91.20
2023-02-02T00:45:15.851Z,91.15
2023-02-02T00:47:47.911Z,90.94
2023-02-02T00:50:19.493Z,90.77
2023-02-02T00:52:47.752Z,90.50
2023-02-02T00:55:16.030Z,90.34
2023-02-02T00:57:44.412Z,90.48
2023-02-02T01:00:15.943Z,90.41
2023-02-02T01:02:42.931Z,90.34
2023-02-02T01:05:11.064Z,90.63
2023-02-02T01:07:37.818Z,90.83
2023-02-02T01:10:05.537Z,91.09
2023-02-02T01:12:32.324Z,91.29
2023-02-02T01:14:58.786Z,91.45
2023-02-02T01:17:25.319Z,92.73
2023-02-02T01:19:51.837Z,93.18
2023-02-02T01:22:18.258Z,93.76
2023-02-02T01:24:44.737Z,94.12
2023-02-02T01:27:11.262Z,94.21
2023-02-02T01:29:37.752Z,94.65
2023-02-02T01:32:04.536Z,94.47
2023-02-02T01:34:31.044Z,94.91
2023-02-02T01:36:57.518Z,95.09
2023-02-02T01:39:24.107Z,94.27
2023-02-02T01:41:50.590Z,94.47
2023-02-02T01:44:54.633Z,93.91
2023-02-02T01:47:25.190Z,93.94
2023-02-02T01:49:52.941Z,93.81
2023-02-02T01:52:22.552Z,93.64
2023-02-02T01:55:01.165Z,93.43
2023-02-02T01:57:34.788Z,93.22
2023-02-02T02:00:05.057Z,93.84
2023-02-02T02:02:32.338Z,94.04
2023-02-02T02:05:01.671Z,93.83
2023-02-02T02:07:28.483Z,94.33
2023-02-02T02:09:55.056Z,94.50
2023-02-02T02:12:21.564Z,94.04
2023-02-02T02:15:09.356Z,94.18
2023-02-02T02:18:00.468Z,93.66
2023-02-02T02:21:17.397Z,93.84
2023-02-02T02:24:17.747Z,93.12
2023-02-02T02:27:20.394Z,92.58
2023-02-02T02:30:23.209Z,92.13
2023-02-02T02:33:03.452Z,92.06
2023-02-02T02:35:41.410Z,91.93
2023-02-02T02:38:29.649Z,91.97
2023-02-02T02:41:02.993Z,91.82
2023-02-02T02:43:37.884Z,91.64
2023-02-02T02:46:05.332Z,91.55
2023-02-02T02:48:31.904Z,91.76
2023-02-02T02:51:29.295Z,91.87
2023-02-02T02:53:56.621Z,91.98
2023-02-02T02:56:36.426Z,92.04
2023-02-02T02:59:10.721Z,92.34
2023-02-02T03:01:49.906Z,92.85
2023-02-02T03:04:22.186Z,93.37
2023-02-02T03:06:55.389Z,93.43
2023-02-02T03:09:25.308Z,93.39
2023-02-02T03:11:51.882Z,93.58
2023-02-02T03:14:18.529Z,93.88
2023-02-02T03:16:44.989Z,93.83
2023-02-02T03:19:11.533Z,93.66
2023-02-02T03:21:37.995Z,93.61
2023-02-02T03:24:04.770Z,93.47
2023-02-02T03:26:31.267Z,93.33
2023-02-02T03:28:57.818Z,93.17
2023-02-02T03:31:27.310Z,93.27
2023-02-02T03:33:54.305Z,92.94
2023-02-02T03:36:21.231Z,92.75
2023-02-02T03:38:47.703Z,92.78
2023-02-02T03:41:15.185Z,93.13
2023-02-02T03:43:41.719Z,92.97
2023-02-02T03:46:08.209Z,92.93
2023-02-02T03:48:36.909Z,93.24
2023-02-02T03:51:14.642Z,92.83
2023-02-02T03:53:44.920Z,93.06
2023-02-02T03:56:11.346Z,92.81
2023-02-02T03:58:37.812Z,92.81
2023-02-02T04:01:06.431Z,92.59
2023-02-02T04:03:33.493Z,92.46
2023-02-02T04:06:00.336Z,92.44
2023-02-02T04:08:26.859Z,92.29
2023-02-02T04:10:53.395Z,92.32
2023-02-02T04:13:20.063Z,92.45
2023-02-02T04:15:46.519Z,92.35
2023-02-02T04:18:12.996Z,92.89
2023-02-02T04:20:39.608Z,93.09
2023-02-02T04:23:06.153Z,93.30
2023-02-02T04:25:32.622Z,94.22
2023-02-02T04:27:59.078Z,94.27
2023-02-02T04:30:25.536Z,94.20
2023-02-02T04:32:52.362Z,94.63
2023-02-02T04:35:18.912Z,94.21
2023-02-02T04:37:45.382Z,94.11
2023-02-02T04:40:12.676Z,93.74
2023-02-02T04:42:39.129Z,94.09
2023-02-02T04:45:06.220Z,94.78
2023-02-02T04:47:32.664Z,95.40
2023-02-02T04:49:59.147Z,95.91
2023-02-02T04:52:25.591Z,95.82
2023-02-02T04:54:52.070Z,95.26
2023-02-02T04:57:18.539Z,95.42
2023-02-02T04:59:45.106Z,95.08
2023-02-02T05:02:11.590Z,95.17
2023-02-02T05:04:38.104Z,95.24
2023-02-02T05:07:04.686Z,95.07
2023-02-02T05:09:31.133Z,95.09
2023-02-02T05:11:57.560Z,94.94
2023-02-02T05:14:24.034Z,95.34
2023-02-02T05:16:50.525Z,95.51
2023-02-02T05:19:17.035Z,95.09
2023-02-02T05:21:51.207Z,95.21
2023-02-02T05:24:17.939Z,95.01
2023-02-02T05:26:44.429Z,94.94
2023-02-02T05:29:11.073Z,95.43
2023-02-02T05:31:37.898Z,95.65
2023-02-02T05:34:06.846Z,95.57
2023-02-02T05:36:33.358Z,95.94
2023-02-02T05:39:00.417Z,96.19
2023-02-02T05:41:26.970Z,96.92
2023-02-02T05:43:53.551Z,97.44
2023-02-02T05:46:20.051Z,98.18
2023-02-02T05:48:46.539Z,98.08
2023-02-02T05:51:18.832Z,98.98
2023-02-02T05:53:45.335Z,99.75
2023-02-02T05:56:13.132Z,100.00
2023-02-02T05:58:39.612Z,100.00
2023-02-02T06:01:06.109Z,99.97
2023-02-02T06:03:32.883Z,99.73
2023-02-02T06:05:59.517Z,99.88
2023-02-02T06:08:26.012Z,100.00
2023-02-02T06:10:52.528Z,99.99
2023-02-02T06:13:18.969Z,100.00
2023-02-02T06:15:45.589Z,100.00
2023-02-02T06:18:12.097Z,100.00
2023-02-02T06:20:38.569Z,100.00
2023-02-02T06:23:06.067Z,100.00
2023-02-02T06:25:32.623Z,100.00
2023-02-02T06:28:00.271Z,100.00
2023-02-02T06:30:27.886Z,100.00
2023-02-02T06:32:54.454Z,100.00
2023-02-02T06:35:21.149Z,100.00
2023-02-02T06:37:48.288Z,100.00
2023-02-02T06:40:14.886Z,100.00
2023-02-02T06:42:41.408Z,100.00
2023-02-02T06:45:08.461Z,100.00
2023-02-02T06:47:34.958Z,100.00
2023-02-02T06:50:01.399Z,100.00
2023-02-02T06:52:27.843Z,100.00
2023-02-02T06:54:54.404Z,100.00
2023-02-02T06:57:20.898Z,100.00
2023-02-02T06:59:47.483Z,100.00
2023-02-02T07:02:13.970Z,100.00
2023-02-02T07:04:40.473Z,100.00
2023-02-02T07:07:07.026Z,100.00
2023-02-02T07:09:34.319Z,100.00
2023-02-02T07:12:00.756Z,100.00
2023-02-02T07:14:27.314Z,100.00
2023-02-02T07:16:53.805Z,100.00
2023-02-02T07:19:20.398Z,100.00
2023-02-02T07:21:46.828Z,100.00
2023-02-02T07:24:13.310Z,100.00
2023-02-02T07:26:39.928Z,100.00
2023-02-02T07:29:06.633Z,100.00
2023-02-02T07:31:36.113Z,100.00
2023-02-02T07:34:02.959Z,100.00
2023-02-02T07:36:29.417Z,100.00
2023-02-02T07:39:02.321Z,100.00
2023-02-02T07:41:28.854Z,100.00
2023-02-02T07:43:55.387Z,100.00
2023-02-02T07:46:21.848Z,100.00
2023-02-02T07:48:48.672Z,100.00
2023-02-02T07:51:18.081Z,100.00
2023-02-02T07:53:46.748Z,100.00
2023-02-02T07:56:18.991Z,100.00
2023-02-02T07:58:45.875Z,100.00
2023-02-02T08:01:14.673Z,100.00
2023-02-02T08:03:42.912Z,100.00
2023-02-02T08:06:15.716Z,100.00
2023-02-02T08:08:42.251Z,100.00
2023-02-02T08:11:10.640Z,100.00
2023-02-02T08:13:37.483Z,100.00
2023-02-02T08:16:04.432Z,100.00
2023-02-02T08:18:31.013Z,100.00
2023-02-02T08:21:01.655Z,100.00
2023-02-02T08:23:29.083Z,100.00
2023-02-02T08:26:09.676Z,100.00
2023-02-02T08:28:36.581Z,100.00
2023-02-02T08:31:31.443Z,100.00
2023-02-02T08:33:58.679Z,100.00
2023-02-02T08:36:27.389Z,100.00
2023-02-02T08:38:53.956Z,100.00
2023-02-02T08:41:23.977Z,100.00
2023-02-02T08:43:50.896Z,100.00
2023-02-02T08:46:20.069Z,100.00
2023-02-02T08:48:47.627Z,100.00
2023-02-02T08:51:16.320Z,100.00
2023-02-02T08:53:43.323Z,100.00
2023-02-02T08:56:17.836Z,100.00
2023-02-02T08:58:49.150Z,100.00
2023-02-02T09:01:18.721Z,100.00
2023-02-02T09:03:45.918Z,100.00
2023-02-02T09:06:18.525Z,100.00
2023-02-02T09:08:46.283Z,100.00
2023-02-02T09:11:18.221Z,100.00
2023-02-02T09:13:46.748Z,100.00
2023-02-02T09:16:15.725Z,100.00
2023-02-02T09:18:43.152Z,100.00
2023-02-02T09:21:11.978Z,100.00
2023-02-02T09:23:40.396Z,100.00
2023-02-02T09:26:15.708Z,100.00
2023-02-02T09:28:44.519Z,100.00
2023-02-02T09:31:11.398Z,100.00
2023-02-02T09:33:37.988Z,100.00
2023-02-02T09:36:11.659Z,100.00
2023-02-02T09:38:39.175Z,100.00
2023-02-02T09:41:11.553Z,100.00
2023-02-02T09:43:55.143Z,100.00
2023-02-02T09:46:43.168Z,100.00
2023-02-02T09:49:13.963Z,100.00
2023-02-02T09:51:45.381Z,100.00
2023-02-02T09:54:21.009Z,100.00
2023-02-02T09:56:55.723Z,100.00
2023-02-02T09:59:26.876Z,100.00
2023-02-02T10:01:57.266Z,100.00
2023-02-02T10:04:34.085Z,100.00
2023-02-02T10:07:09.928Z,100.00
2023-02-02T10:09:57.596Z,100.00
2023-02-02T10:12:41.456Z,100.00
2023-02-02T10:15:33.625Z,100.00
2023-02-02T10:18:20.915Z,100.00
2023-02-02T10:21:00.917Z,100.00
2023-02-02T10:23:32.761Z,100.00
2023-02-02T10:26:19.672Z,100.00
2023-02-02T10:29:17.072Z,100.00
2023-02-02T10:31:46.641Z,100.00
2023-02-02T10:34:28.252Z,100.00
2023-02-02T10:37:23.935Z,100.00
2023-02-02T10:40:14.936Z,100.00
2023-02-02T10:43:14.259Z,100.00
2023-02-02T10:45:43.674Z,100.00
2023-02-02T10:48:20.393Z,100.00
2023-02-02T10:50:54.148Z,100.00
2023-02-02T10:53:21.165Z,100.00
2023-02-02T10:55:58.728Z,100.00
2023-02-02T10:58:43.924Z,100.00
2023-02-02T11:01:11.648Z,100.00
2023-02-02T11:03:40.126Z,100.00
2023-02-02T11:06:27.085Z,100.00
2023-02-02T11:08:58.189Z,100.00
2023-02-02T11:11:26.479Z,100.00
2023-02-02T11:14:01.486Z,99.64
2023-02-02T11:16:42.244Z,99.19
2023-02-02T11:19:21.801Z,99.15
2023-02-02T11:21:53.283Z,98.52
2023-02-02T11:24:36.497Z,97.75
2023-02-02T11:27:20.763Z,98.11
2023-02-02T11:29:55.842Z,97.37
2023-02-02T11:32:25.254Z,97.23
2023-02-02T11:35:17.430Z,96.66
2023-02-02T11:38:09.693Z,96.60
2023-02-02T11:41:02.270Z,95.62
2023-02-02T11:43:33.310Z,95.58
2023-02-02T11:46:04.014Z,95.55
2023-02-02T11:48:36.051Z,94.76
2023-02-02T11:51:04.044Z,94.45
2023-02-02T11:53:40.621Z,94.58
2023-02-02T11:56:19.771Z,93.61
2023-02-02T11:59:00.801Z,92.66
2023-02-02T12:01:41.351Z,92.84
2023-02-02T12:04:16.766Z,91.92
2023-02-02T12:06:43.322Z,91.92
2023-02-02T12:09:16.874Z,91.50
2023-02-02T12:11:43.305Z,91.04
2023-02-02T12:14:24.122Z,91.37
2023-02-02T12:17:24.724Z,90.71
2023-02-02T12:20:09.665Z,90.70
2023-02-02T12:22:39.181Z,90.75
2023-02-02T12:25:14.764Z,90.21
2023-02-02T12:27:57.653Z,90.08
2023-02-02T12:30:42.539Z,90.86
2023-02-02T12:33:09.010Z,90.54
2023-02-02T12:36:00.160Z,90.87
2023-02-02T12:38:55.362Z,90.61
2023-02-02T12:41:27.768Z,90.22
2023-02-02T12:44:11.266Z,90.05
2023-02-02T12:46:44.407Z,90.05
2023-02-02T12:49:13.640Z,90.21
2023-02-02T12:52:03.763Z,90.62
2023-02-02T12:54:52.157Z,90.11
2023-02-02T12:57:46.199Z,89.52
2023-02-02T13:00:28.021Z,90.01
2023-02-02T13:03:17.931Z,89.08
2023-02-02T13:05:47.187Z,89.22
2023-02-02T13:08:21.642Z,88.56
2023-02-02T13:10:54.021Z,88.89
2023-02-02T13:13:27.327Z,87.98
2023-02-02T13:16:02.998Z,88.16
2023-02-02T13:18:35.979Z,87.88
2023-02-02T13:21:07.634Z,87.66
2023-02-02T13:23:40.537Z,87.79
2023-02-02T13:26:14.802Z,87.46
2023-02-02T13:28:56.704Z,86.77
2023-02-02T13:31:35.648Z,87.62
2023-02-02T13:34:20.527Z,87.20
2023-02-02T13:36:53.469Z,87.28
2023-02-02T13:39:32.729Z,87.75
2023-02-02T13:42:00.022Z,86.83
2023-02-02T13:44:36.804Z,86.40
2023-02-02T13:47:11.509Z,86.81
2023-02-02T13:49:50.967Z,86.71
2023-02-02T13:52:28.909Z,86.22
2023-02-02T13:55:27.956Z,86.69
2023-02-02T13:58:22.901Z,85.85
2023-02-02T14:00:58.203Z,86.11
2023-02-02T14:03:38.795Z,86.71
2023-02-02T14:06:05.402Z,86.16
2023-02-02T14:08:32.407Z,86.04
2023-02-02T14:11:02.443Z,86.12
2023-02-02T14:14:03.980Z,86.02
2023-02-02T14:16:33.278Z,85.48
2023-02-02T14:19:01.617Z,85.22
2023-02-02T14:21:31.170Z,84.91
2023-02-02T14:24:26.302Z,84.84
2023-02-02T14:26:54.406Z,84.96
2023-02-02T14:29:32.985Z,84.78
2023-02-02T14:32:34.771Z,83.88
2023-02-02T14:35:01.247Z,83.58
2023-02-02T14:37:27.697Z,83.34
2023-02-02T14:40:06.379Z,83.06
2023-02-02T14:43:28.537Z,83.62
2023-02-02T14:46:13.371Z,83.02
2023-02-02T14:49:00.196Z,83.69
2023-02-02T14:51:29.644Z,84.08
2023-02-02T14:54:01.255Z,84.11
2023-02-02T14:56:59.358Z,83.80
2023-02-02T14:59:40.326Z,84.29
2023-02-02T15:02:17.991Z,84.76
2023-02-02T15:04:47.821Z,84.08
2023-02-02T15:07:23.544Z,84.31
2023-02-02T15:09:51.841Z,84.25
2023-02-02T15:12:22.946Z,84.90
2023-02-02T15:15:12.546Z,84.31
2023-02-02T15:17:40.143Z,84.62
2023-02-02T15:20:20.740Z,84.41
2023-02-02T15:23:24.408Z,84.16
2023-02-02T15:26:05.871Z,84.33
2023-02-02T15:28:44.508Z,84.61
2023-02-02T15:31:11.040Z,84.87
2023-02-02T15:33:57.333Z,84.69
2023-02-02T15:36:27.048Z,85.09
2023-02-02T15:38:58.019Z,85.50
2023-02-02T15:41:28.555Z,85.36
2023-02-02T15:43:55.076Z,84.99
2023-02-02T15:46:26.326Z,84.75
2023-02-02T15:49:33.399Z,84.76
2023-02-02T15:52:12.584Z,84.56
2023-02-02T15:54:48.372Z,84.67
2023-02-02T15:57:35.305Z,84.74
2023-02-02T16:00:20.703Z,85.39
2023-02-02T16:02:50.770Z,85.89
2023-02-02T16:05:24.609Z,86.01
2023-02-02T16:08:03.753Z,85.80
2023-02-02T16:10:31.785Z,86.18
2023-02-02T16:12:58.623Z,86.22
2023-02-02T16:15:28.371Z,86.23
2023-02-02T16:18:07.901Z,86.40
2023-02-02T16:20:37.331Z,86.48
2023-02-02T16:23:11.192Z,86.92
2023-02-02T16:25:46.939Z,87.38
2023-02-02T16:28:17.094Z,87.58
2023-02-02T16:30:45.419Z,88.60
2023-02-02T16:33:36.212Z,89.30
2023-02-02T16:36:23.977Z,90.10
2023-02-02T16:38:52.792Z,91.04
2023-02-02T16:41:34.414Z,93.62
2023-02-02T16:44:40.241Z,95.47
2023-02-02T16:47:08.439Z,96.31
2023-02-02T16:49:36.213Z,96.80
2023-02-02T16:52:14.553Z,97.23
2023-02-02T16:54:49.532Z,97.71
2023-02-02T16:57:26.555Z,98.43
2023-02-02T16:59:53.995Z,98.41
2023-02-02T17:02:40.756Z,98.62
2023-02-02T17:05:21.611Z,99.37
2023-02-02T17:07:52.100Z,99.49
2023-02-02T17:10:18.496Z,99.46
2023-02-02T17:12:45.962Z,99.89
2023-02-02T17:15:18.444Z,100.00
2023-02-02T17:17:49.341Z,100.00
2023-02-02T17:20:17.230Z,100.00
2023-02-02T17:22:47.412Z,100.00
2023-02-02T17:25:19.791Z,100.00
2023-02-02T17:27:46.843Z,100.00
2023-02-02T17:30:16.874Z,100.00
2023-02-02T17:32:43.540Z,100.00
2023-02-02T17:35:19.226Z,100.00
2023-02-02T17:37:45.729Z,100.00
2023-02-02T17:40:14.627Z,100.00
2023-02-02T17:42:43.581Z,100.00
2023-02-02T17:45:17.695Z,100.00
2023-02-02T17:47:44.534Z,100.00
2023-02-02T17:50:11.423Z,100.00
2023-02-02T17:52:38.855Z,100.00
2023-02-02T17:55:21.507Z,100.00
2023-02-02T17:57:52.364Z,100.00
2023-02-02T18:00:21.261Z,100.00
2023-02-02T18:02:50.035Z,100.00
2023-02-02T18:05:17.247Z,100.00
2023-02-02T18:07:44.140Z,100.00
2023-02-02T18:10:12.393Z,100.00
2023-02-02T18:12:39.650Z,100.00
2023-02-02T18:15:08.868Z,100.00
2023-02-02T18:17:35.357Z,100.00
2023-02-02T18:20:01.964Z,100.00
2023-02-02T18:22:28.562Z,100.00
2023-02-02T18:24:55.093Z,100.00
2023-02-02T18:27:21.726Z,100.00
2023-02-02T18:29:48.420Z,100.00
2023-02-02T18:32:17.161Z,100.00
2023-02-02T18:34:45.021Z,100.00
2023-02-02T18:37:11.547Z,100.00
2023-02-02T18:39:38.107Z,100.00
2023-02-02T18:42:04.696Z,100.00
2023-02-02T18:44:31.693Z,100.00
2023-02-02T18:46:58.189Z,100.00
2023-02-02T18:49:24.959Z,100.00
2023-02-02T18:51:51.424Z,100.00
2023-02-02T18:54:17.954Z,100.00
2023-02-02T18:56:44.494Z,100.00
2023-02-02T18:59:11.470Z,100.00
2023-02-02T19:01:38.009Z,100.00
2023-02-02T19:04:04.858Z,100.00
2023-02-02T19:06:50.265Z,100.00
2023-02-02T19:09:17.397Z,100.00
2023-02-02T19:11:46.594Z,100.00
2023-02-02T19:14:17.270Z,100.00
2023-02-02T19:16:46.320Z,100.00
2023-02-02T19:19:17.261Z,100.00
2023-02-02T19:21:43.845Z,100.00
2023-02-02T19:24:14.439Z,100.00
2023-02-02T19:26:49.345Z,99.94
2023-02-02T19:29:21.566Z,99.75
2023-02-02T19:31:53.331Z,99.40
2023-02-02T19:34:21.727Z,98.67
2023-02-02T19:36:50.227Z,98.68
2023-02-02T19:39:25.430Z,98.66
2023-02-02T19:41:56.645Z,98.32
2023-02-02T19:44:25.532Z,98.04
2023-02-02T19:46:52.930Z,98.04
2023-02-02T19:49:33.221Z,98.21
2023-02-02T19:52:03.663Z,98.39
2023-02-02T19:54:39.245Z,98.30
2023-02-02T19:57:38.474Z,98.21
2023-02-02T20:00:19.996Z,98.24
2023-02-02T20:02:49.338Z,97.93
2023-02-02T20:05:18.356Z,97.61
2023-02-02T20:07:45.274Z,97.66
2023-02-02T20:10:24.917Z,97.73
2023-02-02T20:12:52.713Z,97.42
2023-02-02T20:15:31.435Z,97.49
2023-02-02T20:18:00.452Z,97.30
2023-02-02T20:20:32.011Z,97.84
2023-02-02T20:22:58.651Z,97.96
2023-02-02T20:25:25.651Z,97.73
2023-02-02T20:27:53.628Z,98.10
2023-02-02T20:30:26.520Z,98.36
2023-02-02T20:32:56.317Z,98.67
2023-02-02T20:35:25.424Z,98.70
2023-02-02T20:37:52.090Z,98.44
2023-02-02T20:40:21.357Z,98.24
2023-02-02T20:42:48.575Z,98.08
2023-02-02T20:45:17.452Z,98.17
2023-02-02T20:47:48.601Z,98.10
2023-02-02T20:50:18.529Z,98.05
2023-02-02T20:52:45.302Z,98.48
2023-02-02T20:55:12.399Z,98.07
2023-02-02T20:57:40.223Z,97.93
2023-02-02T21:00:10.389Z,97.85
2023-02-02T21:02:37.040Z,97.84
2023-02-02T21:05:04.560Z,97.51
2023-02-02T21:07:31.103Z,97.48
2023-02-02T21:09:57.669Z,97.25
2023-02-02T21:12:25.682Z,97.18
2023-02-02T21:14:55.417Z,97.21
2023-02-02T21:17:22.061Z,97.01
2023-02-02T21:19:48.638Z,97.12
2023-02-02T21:22:15.316Z,97.05
2023-02-02T21:24:42.504Z,96.74
2023-02-02T21:27:09.428Z,96.71
2023-02-02T21:29:36.319Z,96.66
2023-02-02T21:32:03.953Z,96.31
2023-02-02T21:34:31.518Z,96.65
2023-02-02T21:36:58.880Z,96.36
2023-02-02T21:39:29.520Z,96.26
2023-02-02T21:42:13.949Z,96.12
2023-02-02T21:44:44.670Z,96.15
2023-02-02T21:47:16.901Z,96.14
2023-02-02T21:49:43.359Z,96.36
2023-02-02T21:52:16.424Z,96.45
2023-02-02T21:54:43.640Z,96.07
2023-02-02T21:57:36.505Z,96.02
2023-02-02T22:00:22.123Z,95.84
2023-02-02T22:02:51.007Z,96.00
2023-02-02T22:05:27.908Z,96.07
2023-02-02T22:07:57.820Z,96.02
2023-02-02T22:10:36.442Z,95.93
2023-02-02T22:13:15.796Z,95.90
2023-02-02T22:15:46.057Z,95.76
2023-02-02T22:18:18.303Z,95.80
2023-02-02T22:20:47.369Z,95.63
2023-02-02T22:23:16.308Z,95.75
2023-02-02T22:25:44.755Z,95.22
2023-02-02T22:28:20.298Z,95.23
2023-02-02T22:30:47.541Z,95.38
2023-02-02T22:33:14.231Z,95.35
2023-02-02T22:35:42.123Z,95.56
2023-02-02T22:38:09.320Z,95.45
2023-02-02T22:40:36.299Z,95.69
2023-02-02T22:43:05.683Z,95.46
2023-02-02T22:45:32.239Z,95.19
2023-02-02T22:47:58.925Z,95.40
2023-02-02T22:50:28.580Z,95.22
2023-02-02T22:52:55.421Z,95.43
2023-02-02T22:55:22.076Z,95.27
2023-02-02T22:57:48.634Z,95.27
2023-02-02T23:00:25.207Z,95.33
2023-02-02T23:02:52.190Z,95.73
2023-02-02T23:05:20.213Z,95.31
2023-02-02T23:07:47.780Z,95.43
2023-02-02T23:10:17.765Z,95.26
2023-02-02T23:12:44.736Z,95.41
2023-02-02T23:15:12.510Z,95.55
2023-02-02T23:17:39.143Z,95.53
2023-02-02T23:20:08.738Z,95.70
2023-02-02T23:22:35.313Z,95.13
2023-02-02T23:25:01.791Z,95.07
2023-02-02T23:27:28.374Z,94.54
2023-02-02T23:29:54.843Z,94.89
2023-02-02T23:32:21.310Z,94.93
2023-02-02T23:34:47.812Z,94.94
2023-02-02T23:37:14.301Z,94.74
2023-02-02T23:39:40.811Z,94.75
2023-02-02T23:42:07.253Z,94.61
2023-02-02T23:44:33.725Z,94.87
2023-02-02T23:47:01.825Z,94.71
2023-02-02T23:49:28.491Z,95.11
2023-02-02T23:51:55.021Z,95.03
2023-02-02T23:54:22.162Z,94.65
2023-02-02T23:56:50.201Z,94.84
2023-02-02T23:59:16.745Z,94.95
